Time;durP1;ratioP1;P1;durP2;ratioP2;P2;SDS_P1;SDS_P2;PMS_P1;PMS_P2;Temp;Humidity;BMP_temperature;BMP_pressure;BME280_temperature;BME280_humidity;BME280_pressure;Samples;Min_cycle;Max_cycle;Signal;HPM_P1;HPM_P2
2021/07/13 00:00:38;;;;;;;8.65;8.02;;;;;;;;;;3597857;39;20597;-41
2021/07/13 00:03:06;;;;;;;8.95;8.15;;;;;;;;;;3598103;39;20261;-40
2021/07/13 00:05:34;;;;;;;8.38;7.68;;;;;;;;;;3593375;39;20233;-40
2021/07/13 00:08:02;;;;;;;8.68;7.97;;;;;;;;;;3587892;40;20238;-40
2021/07/13 00:10:30;;;;;;;9.63;8.93;;;;;;;;;;3587839;40;20253;-41
2021/07/13 00:12:59;;;;;;;13.10;8.48;;;;;;;;;;3587945;40;20249;-40
2021/07/13 00:15:28;;;;;;;9.75;8.95;;;;;;;;;;3588142;40;20245;-39
2021/07/13 00:17:56;;;;;;;10.13;9.10;;;;;;;;;;3587744;40;20667;-40
2021/07/13 00:20:23;;;;;;;8.68;7.75;;;;;;;;;;3587675;40;20241;-39
2021/07/13 00:22:51;;;;;;;9.95;9.15;;;;;;;;;;3587729;40;20244;-39
2021/07/13 00:25:19;;;;;;;9.52;8.82;;;;;;;;;;3586662;40;20579;-39
2021/07/13 00:27:46;;;;;;;9.45;8.55;;;;;;;;;;3587462;40;20241;-40
2021/07/13 00:30:16;;;;;;;9.48;8.77;;;;;;;;;;3587753;40;20235;-42
2021/07/13 00:32:43;;;;;;;9.40;8.60;;;;;;;;;;3587504;40;20269;-40
2021/07/13 00:35:11;;;;;;;9.27;8.57;;;;;;;;;;3588813;40;20259;-39
2021/07/13 00:37:39;;;;;;;9.77;8.82;;;;;;;;;;3588243;40;20331;-40
2021/07/13 00:40:06;;;;;;;8.88;8.27;;;;;;;;;;3587385;40;20239;-40
2021/07/13 00:42:34;;;;;;;8.15;7.55;;;;;;;;;;3587796;40;20525;-38
2021/07/13 00:45:01;;;;;;;10.05;9.15;;;;;;;;;;3587779;40;20703;-38
2021/07/13 00:47:30;;;;;;;12.05;10.02;;;;;;;;;;3587362;40;20241;-38
2021/07/13 00:49:59;;;;;;;9.73;8.98;;;;;;;;;;3588182;40;20803;-38
2021/07/13 00:52:27;;;;;;;8.55;7.95;;;;;;;;;;3588907;40;20609;-38
2021/07/13 00:54:55;;;;;;;8.98;8.27;;;;;;;;;;3589012;40;20242;-38
2021/07/13 00:57:22;;;;;;;10.65;9.75;;;;;;;;;;3589111;40;20238;-38
2021/07/13 00:59:49;;;;;;;9.95;9.07;;;;;;;;;;3589135;40;20230;-39
2021/07/13 01:02:18;;;;;;;10.30;9.23;;;;;;;;;;3589138;40;20234;-39
2021/07/13 01:04:49;;;;;;;9.57;8.82;;;;;;;;;;3589087;40;20288;-38
2021/07/13 01:07:19;;;;;;;10.02;9.27;;;;;;;;;;3589067;40;20277;-38
2021/07/13 01:09:51;;;;;;;9.73;8.73;;;;;;;;;;3589504;40;20242;-40
2021/07/13 01:12:24;;;;;;;11.25;10.35;;;;;;;;;;3589097;40;20246;-38
2021/07/13 01:14:53;;;;;;;13.48;12.30;;;;;;;;;;3589101;40;20234;-40
2021/07/13 01:17:24;;;;;;;10.25;9.35;;;;;;;;;;3588858;40;20239;-38
2021/07/13 01:20:03;;;;;;;11.48;9.23;;;;;;;;;;3588757;40;20266;-40
2021/07/13 01:22:32;;;;;;;10.95;9.95;;;;;;;;;;3589427;40;20234;-38
2021/07/13 01:25:12;;;;;;;10.07;9.38;;;;;;;;;;3588768;40;20234;-38
2021/07/13 01:27:42;;;;;;;10.63;9.70;;;;;;;;;;3595850;39;20265;-41
2021/07/13 01:30:12;;;;;;;11.05;10.18;;;;;;;;;;3607486;39;20233;-39
2021/07/13 01:32:40;;;;;;;11.18;10.13;;;;;;;;;;3609258;39;20263;-39
2021/07/13 01:35:11;;;;;;;10.25;9.40;;;;;;;;;;3608986;39;20306;-40
2021/07/13 01:37:39;;;;;;;10.25;9.27;;;;;;;;;;3608818;39;20624;-39
2021/07/13 01:40:08;;;;;;;10.30;9.45;;;;;;;;;;3608873;39;20369;-39
2021/07/13 01:42:38;;;;;;;10.23;9.23;;;;;;;;;;3609590;39;20245;-40
2021/07/13 01:45:06;;;;;;;10.48;9.45;;;;;;;;;;3608975;39;20244;-39
2021/07/13 01:47:35;;;;;;;9.57;8.65;;;;;;;;;;3609235;39;20249;-39
2021/07/13 01:50:02;;;;;;;11.55;8.82;;;;;;;;;;3608792;39;20241;-38
2021/07/13 01:52:30;;;;;;;8.88;8.07;;;;;;;;;;3609630;39;20489;-39
2021/07/13 01:54:58;;;;;;;10.65;9.73;;;;;;;;;;3610666;39;20302;-39
2021/07/13 01:57:27;;;;;;;9.27;8.50;;;;;;;;;;3609935;39;20248;-38
2021/07/13 01:59:55;;;;;;;9.57;8.77;;;;;;;;;;3608999;39;20249;-38
2021/07/13 02:02:24;;;;;;;8.93;8.20;;;;;;;;;;3609446;39;20244;-39
2021/07/13 02:04:54;;;;;;;9.68;8.65;;;;;;;;;;3607356;39;20586;-39
2021/07/13 02:07:22;;;;;;;11.25;9.40;;;;;;;;;;3599344;39;20624;-39
2021/07/13 02:09:50;;;;;;;9.85;9.10;;;;;;;;;;3598494;39;20234;-39
2021/07/13 02:12:17;;;;;;;10.38;9.40;;;;;;;;;;3598877;39;20230;-39
2021/07/13 02:14:45;;;;;;;10.10;9.23;;;;;;;;;;3598573;39;20253;-39
2021/07/13 02:17:12;;;;;;;11.02;9.07;;;;;;;;;;3598824;39;20252;-39
2021/07/13 02:19:39;;;;;;;10.38;9.45;;;;;;;;;;3597252;40;20288;-42
2021/07/13 02:22:09;;;;;;;10.68;9.77;;;;;;;;;;3598461;39;20616;-40
2021/07/13 02:24:36;;;;;;;11.18;10.30;;;;;;;;;;3598547;39;20252;-39
2021/07/13 02:27:05;;;;;;;13.48;8.90;;;;;;;;;;3598593;39;20242;-39
2021/07/13 02:29:33;;;;;;;10.40;9.60;;;;;;;;;;3598301;39;20233;-39
2021/07/13 02:32:02;;;;;;;10.65;9.75;;;;;;;;;;3598642;39;20230;-39
2021/07/13 02:34:31;;;;;;;11.20;10.05;;;;;;;;;;3598524;39;20605;-39
2021/07/13 02:37:00;;;;;;;11.05;10.10;;;;;;;;;;3598592;39;20225;-40
2021/07/13 02:39:29;;;;;;;11.55;10.75;;;;;;;;;;3599331;39;20245;-39
2021/07/13 02:41:57;;;;;;;11.77;10.63;;;;;;;;;;3598786;39;20233;-38
2021/07/13 02:44:25;;;;;;;11.85;10.80;;;;;;;;;;3626924;22;20250;-38
2021/07/13 02:46:53;;;;;;;14.07;11.05;;;;;;;;;;3587530;40;20593;-39
2021/07/13 02:49:21;;;;;;;12.25;11.15;;;;;;;;;;3578544;40;20253;-39
2021/07/13 02:51:51;;;;;;;11.90;11.00;;;;;;;;;;3588069;40;20249;-39
2021/07/13 02:54:20;;;;;;;11.98;10.85;;;;;;;;;;3586140;40;20254;-38
2021/07/13 02:56:49;;;;;;;11.88;10.77;;;;;;;;;;3587853;40;20299;-38
2021/07/13 02:59:17;;;;;;;11.98;11.07;;;;;;;;;;3587985;40;20238;-39
2021/07/13 03:01:45;;;;;;;11.07;10.05;;;;;;;;;;3588010;40;20606;-39
2021/07/13 03:04:13;;;;;;;11.52;9.52;;;;;;;;;;3587602;40;20241;-38
2021/07/13 03:06:41;;;;;;;11.77;10.77;;;;;;;;;;3587891;40;20230;-39
2021/07/13 03:09:08;;;;;;;12.07;10.95;;;;;;;;;;3587501;40;20322;-38
2021/07/13 03:11:37;;;;;;;12.52;11.60;;;;;;;;;;3587881;40;20520;-38
2021/07/13 03:14:07;;;;;;;13.85;12.52;;;;;;;;;;3587491;40;20335;-38
2021/07/13 03:16:35;;;;;;;12.77;11.65;;;;;;;;;;3588598;40;20339;-38
2021/07/13 03:19:04;;;;;;;19.17;17.35;;;;;;;;;;3588385;40;20234;-39
2021/07/13 03:21:34;;;;;;;16.38;14.65;;;;;;;;;;3587805;40;20249;-39
2021/07/13 03:24:03;;;;;;;14.32;13.15;;;;;;;;;;3578395;40;20523;-37
2021/07/13 03:26:31;;;;;;;14.32;13.00;;;;;;;;;;3588817;40;20253;-38
2021/07/13 03:29:00;;;;;;;14.68;13.57;;;;;;;;;;3587591;40;20238;-39
2021/07/13 03:31:29;;;;;;;14.95;13.40;;;;;;;;;;3587667;40;20238;-38
2021/07/13 03:33:57;;;;;;;14.13;12.60;;;;;;;;;;3590799;40;20242;-38
2021/07/13 03:36:24;;;;;;;14.68;13.27;;;;;;;;;;3591939;40;20230;-38
2021/07/13 03:38:52;;;;;;;15.13;13.27;;;;;;;;;;3587849;40;20257;-39
2021/07/13 03:41:20;;;;;;;15.68;13.38;;;;;;;;;;3587788;40;20315;-38
2021/07/13 03:43:48;;;;;;;15.88;14.57;;;;;;;;;;3587818;40;20235;-38
2021/07/13 03:46:16;;;;;;;14.25;13.10;;;;;;;;;;3587567;40;20622;-38
2021/07/13 03:48:47;;;;;;;13.70;12.60;;;;;;;;;;3588032;40;20590;-39
2021/07/13 03:51:20;;;;;;;13.20;12.15;;;;;;;;;;3587899;40;20238;-39
2021/07/13 03:53:47;;;;;;;13.38;12.27;;;;;;;;;;3587576;40;20249;-38
2021/07/13 03:56:15;;;;;;;14.48;13.07;;;;;;;;;;3587481;40;20601;-39
2021/07/13 03:58:42;;;;;;;18.65;17.08;;;;;;;;;;3587628;40;20238;-39
2021/07/13 04:01:09;;;;;;;12.20;11.30;;;;;;;;;;3587533;40;20594;-38
2021/07/13 04:03:37;;;;;;;11.63;10.77;;;;;;;;;;3587517;40;20245;-39
2021/07/13 04:06:05;;;;;;;12.80;11.70;;;;;;;;;;3581143;40;20312;-38
2021/07/13 04:08:33;;;;;;;11.57;10.57;;;;;;;;;;3577422;40;20227;-39
2021/07/13 04:11:00;;;;;;;13.40;12.30;;;;;;;;;;3577996;40;20231;-38
2021/07/13 04:13:27;;;;;;;14.75;13.38;;;;;;;;;;3579395;40;20321;-38
2021/07/13 04:15:55;;;;;;;12.73;11.55;;;;;;;;;;3579574;40;20243;-39
2021/07/13 04:18:22;;;;;;;11.43;10.60;;;;;;;;;;3579678;40;20254;-39
2021/07/13 04:20:50;;;;;;;13.55;12.32;;;;;;;;;;3578826;40;20821;-38
2021/07/13 04:23:18;;;;;;;12.25;11.20;;;;;;;;;;3578297;40;20243;-38
2021/07/13 04:25:46;;;;;;;12.07;11.18;;;;;;;;;;3579696;40;20263;-38
2021/07/13 04:28:13;;;;;;;13.25;12.02;;;;;;;;;;3579964;40;20242;-38
2021/07/13 04:30:41;;;;;;;13.45;12.43;;;;;;;;;;3580559;40;20230;-38
2021/07/13 04:33:08;;;;;;;14.82;13.60;;;;;;;;;;3580559;40;20251;-38
2021/07/13 04:35:35;;;;;;;13.38;12.20;;;;;;;;;;3580988;40;20637;-38
2021/07/13 04:38:03;;;;;;;14.48;13.27;;;;;;;;;;3581156;40;20235;-38
2021/07/13 04:40:31;;;;;;;12.55;11.57;;;;;;;;;;3581999;40;20246;-38
2021/07/13 04:42:59;;;;;;;14.60;13.20;;;;;;;;;;3582049;40;20343;-38
2021/07/13 04:45:26;;;;;;;14.13;12.82;;;;;;;;;;3572363;40;20626;-40
2021/07/13 04:47:54;;;;;;;17.25;15.93;;;;;;;;;;3581061;40;20235;-38
2021/07/13 04:50:21;;;;;;;15.77;14.57;;;;;;;;;;3580971;40;20231;-38
2021/07/13 04:52:48;;;;;;;13.40;12.15;;;;;;;;;;3580371;40;20622;-38
2021/07/13 04:55:17;;;;;;;12.93;11.77;;;;;;;;;;3578529;40;20314;-38
2021/07/13 04:57:46;;;;;;;12.65;11.50;;;;;;;;;;3578668;40;20227;-39
2021/07/13 05:00:14;;;;;;;15.15;13.43;;;;;;;;;;3578672;40;20235;-38
2021/07/13 05:02:44;;;;;;;12.95;11.77;;;;;;;;;;3578509;40;20615;-39
2021/07/13 05:05:14;;;;;;;12.23;11.23;;;;;;;;;;3581282;40;20237;-38
2021/07/13 05:07:41;;;;;;;14.80;11.30;;;;;;;;;;3588626;40;20691;-39
2021/07/13 05:10:10;;;;;;;18.23;15.20;;;;;;;;;;3587793;40;20254;-38
2021/07/13 05:12:38;;;;;;;16.05;14.40;;;;;;;;;;3592024;40;20631;-38
2021/07/13 05:15:09;;;;;;;17.33;13.00;;;;;;;;;;3579048;40;20334;-38
2021/07/13 05:17:38;;;;;;;23.73;15.55;;;;;;;;;;3588509;40;20238;-39
2021/07/13 05:20:06;;;;;;;18.42;16.27;;;;;;;;;;3588618;40;20241;-39
2021/07/13 05:22:34;;;;;;;13.73;12.38;;;;;;;;;;3588517;40;20329;-38
2021/07/13 05:25:02;;;;;;;13.55;12.35;;;;;;;;;;3588689;40;20247;-38
2021/07/13 05:27:29;;;;;;;14.38;12.63;;;;;;;;;;3588423;40;20241;-38
2021/07/13 05:29:57;;;;;;;14.50;12.95;;;;;;;;;;3580538;40;20242;-38
2021/07/13 05:32:25;;;;;;;18.15;16.45;;;;;;;;;;3578429;40;20250;-38
2021/07/13 05:34:53;;;;;;;13.98;12.77;;;;;;;;;;3578207;40;20337;-39
2021/07/13 05:37:20;;;;;;;16.25;14.60;;;;;;;;;;3578470;40;20235;-40
2021/07/13 05:39:47;;;;;;;15.90;12.77;;;;;;;;;;3569301;40;20239;-39
2021/07/13 05:42:15;;;;;;;15.85;12.60;;;;;;;;;;3578183;40;20317;-39
2021/07/13 05:44:42;;;;;;;16.67;12.00;;;;;;;;;;3578674;40;20228;-39
2021/07/13 05:47:09;;;;;;;13.35;11.95;;;;;;;;;;3578194;40;20243;-38
2021/07/13 05:49:40;;;;;;;12.65;11.50;;;;;;;;;;3578589;40;20258;-39
2021/07/13 05:52:07;;;;;;;15.52;14.20;;;;;;;;;;3578844;40;20251;-39
2021/07/13 05:54:35;;;;;;;13.50;12.40;;;;;;;;;;3577978;40;20257;-38
2021/07/13 05:57:02;;;;;;;12.90;11.70;;;;;;;;;;3578211;40;20239;-39
2021/07/13 05:59:29;;;;;;;13.93;12.50;;;;;;;;;;3578298;40;20247;-39
2021/07/13 06:01:57;;;;;;;12.95;11.85;;;;;;;;;;3586316;40;20582;-39
2021/07/13 06:04:24;;;;;;;13.65;12.27;;;;;;;;;;3588144;40;20241;-40
2021/07/13 06:06:53;;;;;;;16.75;13.38;;;;;;;;;;3588343;40;20242;-38
2021/07/13 06:09:21;;;;;;;13.65;12.23;;;;;;;;;;3588077;40;20240;-39
2021/07/13 06:11:48;;;;;;;12.90;11.73;;;;;;;;;;3587904;40;20246;-39
2021/07/13 06:14:15;;;;;;;12.82;11.65;;;;;;;;;;3588466;40;20253;-39
2021/07/13 06:16:44;;;;;;;13.15;12.13;;;;;;;;;;3589586;40;20246;-39
2021/07/13 06:19:11;;;;;;;14.63;12.65;;;;;;;;;;3588076;40;20241;-39
2021/07/13 06:21:38;;;;;;;13.10;11.95;;;;;;;;;;3588371;40;20234;-48
2021/07/13 06:24:07;;;;;;;12.88;11.77;;;;;;;;;;3588404;40;20239;-40
2021/07/13 06:26:35;;;;;;;15.35;12.98;;;;;;;;;;3587973;40;20242;-40
2021/07/13 06:29:02;;;;;;;13.30;12.15;;;;;;;;;;3588422;40;20602;-39
2021/07/13 06:31:29;;;;;;;13.10;11.73;;;;;;;;;;3593793;40;20242;-38
2021/07/13 06:33:56;;;;;;;12.77;11.73;;;;;;;;;;3593703;40;20254;-39
2021/07/13 06:36:24;;;;;;;13.38;12.07;;;;;;;;;;3588788;40;20246;-39
2021/07/13 06:38:51;;;;;;;14.55;13.32;;;;;;;;;;3587852;40;20303;-40
2021/07/13 06:41:20;;;;;;;13.18;11.95;;;;;;;;;;3588075;40;20324;-39
2021/07/13 06:43:47;;;;;;;12.05;11.05;;;;;;;;;;3588311;40;20323;-40
2021/07/13 06:46:14;;;;;;;11.88;10.77;;;;;;;;;;3587792;40;20645;-40
2021/07/13 06:48:42;;;;;;;11.60;10.55;;;;;;;;;;3588662;40;20246;-40
2021/07/13 06:51:09;;;;;;;12.07;10.45;;;;;;;;;;3588219;40;20629;-39
2021/07/13 06:53:37;;;;;;;11.65;10.60;;;;;;;;;;3588125;40;20323;-40
2021/07/13 06:56:04;;;;;;;11.30;10.30;;;;;;;;;;3588102;40;20602;-40
2021/07/13 06:58:33;;;;;;;12.02;10.30;;;;;;;;;;3588723;40;20234;-40
2021/07/13 07:01:00;;;;;;;11.52;10.35;;;;;;;;;;3588318;40;20527;-44
2021/07/13 07:03:27;;;;;;;17.98;11.95;;;;;;;;;;3588278;40;20234;-40
2021/07/13 07:05:55;;;;;;;11.52;10.52;;;;;;;;;;3588455;40;20234;-40
2021/07/13 07:08:22;;;;;;;11.95;10.85;;;;;;;;;;3588233;40;20239;-39
2021/07/13 07:10:49;;;;;;;13.50;10.95;;;;;;;;;;3578431;40;20238;-40
2021/07/13 07:13:17;;;;;;;15.02;11.20;;;;;;;;;;3588051;40;20541;-39
2021/07/13 07:15:45;;;;;;;12.35;11.05;;;;;;;;;;3587854;40;20315;-39
2021/07/13 07:18:13;;;;;;;11.95;10.88;;;;;;;;;;3588811;40;20230;-40
2021/07/13 07:20:40;;;;;;;12.18;10.77;;;;;;;;;;3588161;40;20234;-39
2021/07/13 07:23:08;;;;;;;12.77;11.48;;;;;;;;;;3588399;40;20233;-39
2021/07/13 07:25:35;;;;;;;11.60;10.50;;;;;;;;;;3588949;40;20512;-39
2021/07/13 07:28:03;;;;;;;12.02;10.93;;;;;;;;;;3590541;40;20320;-39
2021/07/13 07:30:31;;;;;;;11.50;10.45;;;;;;;;;;3589854;40;20249;-40
2021/07/13 07:33:00;;;;;;;10.77;9.75;;;;;;;;;;3588305;40;20292;-39
2021/07/13 07:35:29;;;;;;;11.57;9.27;;;;;;;;;;3587540;40;20246;-40
2021/07/13 07:37:56;;;;;;;9.55;8.80;;;;;;;;;;3587687;40;20627;-40
2021/07/13 07:40:24;;;;;;;17.58;10.18;;;;;;;;;;3582285;40;20227;-40
2021/07/13 07:42:52;;;;;;;11.05;9.70;;;;;;;;;;3577266;40;20514;-40
2021/07/13 07:45:20;;;;;;;12.20;9.27;;;;;;;;;;3578125;40;20404;-40
2021/07/13 07:47:51;;;;;;;11.07;8.80;;;;;;;;;;3683887;22;21080;31
2021/07/13 07:50:20;;;;;;;8.85;7.95;;;;;;;;;;3576744;40;20555;-41
2021/07/13 07:52:47;;;;;;;8.90;8.18;;;;;;;;;;3577985;40;20235;-42
2021/07/13 07:55:15;;;;;;;8.65;7.85;;;;;;;;;;3578369;40;20242;-39
2021/07/13 07:57:43;;;;;;;8.70;7.45;;;;;;;;;;3577931;40;20239;-40
2021/07/13 08:00:12;;;;;;;7.63;7.13;;;;;;;;;;3576979;40;20247;-40
2021/07/13 08:02:42;;;;;;;8.52;7.70;;;;;;;;;;3576778;40;20247;-40
2021/07/13 08:05:10;;;;;;;8.55;7.75;;;;;;;;;;3570913;40;20246;-42
2021/07/13 08:07:39;;;;;;;10.40;7.78;;;;;;;;;;3575084;40;20615;-41
2021/07/13 08:10:07;;;;;;;9.52;8.55;;;;;;;;;;3577071;40;20235;-41
2021/07/13 08:12:34;;;;;;;8.38;7.10;;;;;;;;;;3571575;40;20250;-41
2021/07/13 08:15:02;;;;;;;8.45;6.63;;;;;;;;;;3577458;40;20246;-42
2021/07/13 08:17:29;;;;;;;7.65;6.90;;;;;;;;;;3577677;40;20243;-40
2021/07/13 08:19:56;;;;;;;12.35;8.35;;;;;;;;;;3572140;40;20282;-41
2021/07/13 08:22:24;;;;;;;8.02;7.28;;;;;;;;;;3575461;40;20626;-41
2021/07/13 08:24:52;;;;;;;6.95;6.13;;;;;;;;;;3577926;40;20269;-40
2021/07/13 08:27:20;;;;;;;7.80;6.47;;;;;;;;;;3577467;40;20235;-40
2021/07/13 08:29:47;;;;;;;5.85;5.35;;;;;;;;;;3577203;40;20599;-40
2021/07/13 08:32:15;;;;;;;7.25;5.35;;;;;;;;;;3577505;40;20242;-42
2021/07/13 08:34:42;;;;;;;6.88;6.05;;;;;;;;;;3574798;40;20513;-40
2021/07/13 08:37:09;;;;;;;5.50;4.70;;;;;;;;;;3567708;40;20254;-40
2021/07/13 08:39:37;;;;;;;7.53;5.95;;;;;;;;;;3567841;40;20251;-42
2021/07/13 08:42:06;;;;;;;9.30;5.20;;;;;;;;;;3567548;40;20336;-40
2021/07/13 08:44:35;;;;;;;9.25;5.85;;;;;;;;;;3574333;40;20239;-41
2021/07/13 08:47:02;;;;;;;8.93;5.70;;;;;;;;;;3568014;40;20550;-40
2021/07/13 08:49:30;;;;;;;9.00;7.07;;;;;;;;;;3573420;40;20240;-41
2021/07/13 08:51:57;;;;;;;14.68;5.65;;;;;;;;;;3576994;40;20727;-40
2021/07/13 08:54:25;;;;;;;7.88;5.75;;;;;;;;;;3573647;40;20235;-41
2021/07/13 08:56:54;;;;;;;14.45;6.60;;;;;;;;;;3576289;40;20243;-41
2021/07/13 08:59:22;;;;;;;7.28;5.35;;;;;;;;;;3577191;40;20719;-40
2021/07/13 09:01:50;;;;;;;6.18;5.35;;;;;;;;;;3577181;40;20641;-41
2021/07/13 09:04:17;;;;;;;9.77;4.10;;;;;;;;;;3577620;40;20238;-40
2021/07/13 09:06:51;;;;;;;6.28;3.80;;;;;;;;;;3577287;40;20257;-41
2021/07/13 09:09:23;;;;;;;3.75;3.17;;;;;;;;;;3577664;40;20242;-40
2021/07/13 09:11:55;;;;;;;6.72;3.67;;;;;;;;;;3578473;40;20239;-40
2021/07/13 09:14:24;;;;;;;6.72;3.13;;;;;;;;;;3579159;40;20304;-41
2021/07/13 09:17:01;;;;;;;3.38;2.92;;;;;;;;;;3578800;40;20243;-42
2021/07/13 09:19:29;;;;;;;3.70;3.25;;;;;;;;;;3579073;40;20247;-40
2021/07/13 09:21:56;;;;;;;3.78;3.47;;;;;;;;;;3574766;40;20243;-40
2021/07/13 09:24:24;;;;;;;2.80;2.60;;;;;;;;;;3569553;40;20235;-41
2021/07/13 09:26:52;;;;;;;6.78;3.83;;;;;;;;;;3568904;40;20240;-40
2021/07/13 09:29:39;;;;;;;3.53;2.80;;;;;;;;;;3568727;40;20243;-44
2021/07/13 09:32:39;;;;;;;3.28;2.97;;;;;;;;;;3568727;40;20267;-40
2021/07/13 09:35:09;;;;;;;4.50;2.85;;;;;;;;;;3573728;40;20574;-41
2021/07/13 09:37:38;;;;;;;3.75;3.20;;;;;;;;;;3568796;40;20240;-44
2021/07/13 09:40:07;;;;;;;3.15;2.88;;;;;;;;;;3573198;40;20212;-40
2021/07/13 09:42:36;;;;;;;4.03;3.67;;;;;;;;;;3578863;40;20242;-41
2021/07/13 09:45:18;;;;;;;4.28;2.80;;;;;;;;;;3578467;40;20247;-42
2021/07/13 09:47:45;;;;;;;4.00;2.92;;;;;;;;;;3575562;40;20603;-40
2021/07/13 09:50:14;;;;;;;4.68;2.85;;;;;;;;;;3579057;40;20223;-40
2021/07/13 09:52:42;;;;;;;3.13;2.92;;;;;;;;;;3578789;40;20700;-40
2021/07/13 09:55:15;;;;;;;3.00;2.80;;;;;;;;;;3579141;40;20259;-41
2021/07/13 09:57:42;;;;;;;5.95;2.78;;;;;;;;;;3577658;40;20243;-40
2021/07/13 10:00:10;;;;;;;3.53;3.20;;;;;;;;;;3570386;40;20250;-41
2021/07/13 10:02:39;;;;;;;4.15;3.85;;;;;;;;;;3569969;40;20255;-40
2021/07/13 10:05:07;;;;;;;3.17;2.97;;;;;;;;;;3579113;40;20571;-39
2021/07/13 10:07:35;;;;;;;3.58;3.10;;;;;;;;;;3578547;40;20243;-40
2021/07/13 10:10:03;;;;;;;5.60;4.05;;;;;;;;;;3578590;40;20238;-40
2021/07/13 10:12:32;;;;;;;3.90;3.60;;;;;;;;;;3578388;40;20237;-40
2021/07/13 10:15:00;;;;;;;3.88;3.67;;;;;;;;;;3578581;40;20249;-40
2021/07/13 10:17:28;;;;;;;3.30;2.95;;;;;;;;;;3576116;40;20239;-40
2021/07/13 10:19:58;;;;;;;4.38;4.03;;;;;;;;;;3577972;40;20296;-40
2021/07/13 10:22:26;;;;;;;4.05;3.75;;;;;;;;;;3577902;40;20328;-40
2021/07/13 10:24:56;;;;;;;4.25;3.95;;;;;;;;;;3573785;40;20251;-40
2021/07/13 10:27:27;;;;;;;4.88;4.47;;;;;;;;;;3574867;40;20336;-41
2021/07/13 10:29:56;;;;;;;4.47;4.18;;;;;;;;;;3577156;40;20330;-39
2021/07/13 10:32:34;;;;;;;5.85;5.25;;;;;;;;;;3568326;40;20258;-42
2021/07/13 10:35:04;;;;;;;5.32;4.85;;;;;;;;;;3568513;40;20254;-39
2021/07/13 10:37:33;;;;;;;4.40;4.07;;;;;;;;;;3568462;40;20251;-40
2021/07/13 10:40:01;;;;;;;4.57;3.88;;;;;;;;;;3568482;40;20709;-40
2021/07/13 10:42:47;;;;;;;4.60;4.20;;;;;;;;;;3570681;40;20507;-40
2021/07/13 10:45:16;;;;;;;4.97;4.25;;;;;;;;;;3577650;40;20270;-41
2021/07/13 10:48:03;;;;;;;7.60;4.40;;;;;;;;;;3574755;40;20243;-42
2021/07/13 10:50:39;;;;;;;4.70;4.20;;;;;;;;;;3578306;40;20243;-41
2021/07/13 10:53:07;;;;;;;4.15;3.83;;;;;;;;;;3578663;40;20305;-43
2021/07/13 10:55:47;;;;;;;6.00;4.78;;;;;;;;;;3578182;40;20242;-42
2021/07/13 10:58:21;;;;;;;5.57;4.60;;;;;;;;;;3577749;40;20650;-41
2021/07/13 11:01:04;;;;;;;6.32;5.35;;;;;;;;;;3572302;40;20247;-41
2021/07/13 11:03:50;;;;;;;6.53;4.70;;;;;;;;;;3576310;40;20292;-40
2021/07/13 11:06:19;;;;;;;4.38;4.07;;;;;;;;;;3577677;40;20238;-40
2021/07/13 11:08:51;;;;;;;4.95;4.45;;;;;;;;;;3577681;40;20243;-42
2021/07/13 11:11:37;;;;;;;6.20;5.78;;;;;;;;;;3574985;40;20235;-42
2021/07/13 11:14:06;;;;;;;6.28;4.38;;;;;;;;;;3568263;40;20243;-40
2021/07/13 11:16:34;;;;;;;4.82;4.53;;;;;;;;;;3571387;40;20250;-40
2021/07/13 11:19:02;;;;;;;6.82;6.07;;;;;;;;;;3578974;40;20243;-42
2021/07/13 11:21:32;;;;;;;6.05;5.45;;;;;;;;;;3578193;40;20247;-40
2021/07/13 11:24:01;;;;;;;6.05;5.55;;;;;;;;;;3570214;40;20532;-41
2021/07/13 11:26:28;;;;;;;5.32;4.85;;;;;;;;;;3576406;40;20575;-39
2021/07/13 11:28:58;;;;;;;6.05;5.47;;;;;;;;;;3577886;40;20231;-40
2021/07/13 11:31:26;;;;;;;5.13;4.70;;;;;;;;;;3578085;40;20400;-40
2021/07/13 11:33:53;;;;;;;6.32;5.72;;;;;;;;;;3577655;40;20235;-40
2021/07/13 11:36:27;;;;;;;5.40;5.00;;;;;;;;;;3577826;40;20238;-40
2021/07/13 11:38:56;;;;;;;5.55;5.15;;;;;;;;;;3572368;40;20235;-40
2021/07/13 11:41:23;;;;;;;10.15;6.00;;;;;;;;;;3568114;40;20240;-40
2021/07/13 11:43:54;;;;;;;5.40;5.05;;;;;;;;;;3568115;40;20239;-40
2021/07/13 11:46:22;;;;;;;5.90;5.30;;;;;;;;;;3567588;40;20235;-42
2021/07/13 11:48:56;;;;;;;7.05;6.45;;;;;;;;;;3574384;40;20321;-40
2021/07/13 11:51:25;;;;;;;5.18;4.78;;;;;;;;;;3577593;40;20242;-41
2021/07/13 11:54:00;;;;;;;5.78;5.28;;;;;;;;;;3578163;40;20545;-40
2021/07/13 11:56:28;;;;;;;6.30;5.68;;;;;;;;;;3577553;40;20246;-41
2021/07/13 11:58:56;;;;;;;7.18;6.65;;;;;;;;;;3573552;40;20244;-40
2021/07/13 12:01:24;;;;;;;6.82;6.22;;;;;;;;;;3567937;40;20529;-40
2021/07/13 12:03:52;;;;;;;5.90;5.40;;;;;;;;;;3570701;40;20507;-40
2021/07/13 12:06:20;;;;;;;6.28;5.80;;;;;;;;;;3575922;40;20231;-42
2021/07/13 12:08:54;;;;;;;6.28;5.78;;;;;;;;;;3577761;40;20231;-41
2021/07/13 12:11:24;;;;;;;7.85;6.40;;;;;;;;;;3577259;40;20251;-42
2021/07/13 12:13:52;;;;;;;6.93;6.43;;;;;;;;;;3571955;40;20243;-41
2021/07/13 12:16:22;;;;;;;6.32;5.82;;;;;;;;;;3574986;40;20259;-40
2021/07/13 12:18:51;;;;;;;7.05;6.45;;;;;;;;;;3578770;40;20239;-41
2021/07/13 12:21:21;;;;;;;6.30;5.80;;;;;;;;;;3579487;40;20317;-39
2021/07/13 12:23:49;;;;;;;6.68;6.15;;;;;;;;;;3573187;40;20240;-42
2021/07/13 12:26:28;;;;;;;7.43;6.82;;;;;;;;;;3571309;40;20246;-41
2021/07/13 12:29:06;;;;;;;7.90;6.35;;;;;;;;;;3571901;40;20575;-40
2021/07/13 12:31:35;;;;;;;6.38;5.93;;;;;;;;;;3571839;40;20246;-40
2021/07/13 12:34:07;;;;;;;6.38;5.97;;;;;;;;;;3573276;40;20236;-41
2021/07/13 12:36:35;;;;;;;6.95;6.05;;;;;;;;;;3582045;40;20257;-39
2021/07/13 12:39:19;;;;;;;6.18;5.57;;;;;;;;;;3581621;40;20231;-39
2021/07/13 12:41:57;;;;;;;9.35;6.20;;;;;;;;;;3582007;40;20227;-40
2021/07/13 12:44:31;;;;;;;5.90;5.50;;;;;;;;;;3581709;40;20610;-40
2021/07/13 12:47:15;;;;;;;5.95;5.45;;;;;;;;;;3579945;40;20250;-40
2021/07/13 12:49:43;;;;;;;6.28;5.82;;;;;;;;;;3582493;40;20495;-41
2021/07/13 12:52:10;;;;;;;6.30;5.70;;;;;;;;;;3579280;40;20251;-40
2021/07/13 12:54:53;;;;;;;6.43;5.93;;;;;;;;;;3576544;40;20260;-42
2021/07/13 12:57:32;;;;;;;5.40;5.07;;;;;;;;;;3576007;40;20282;-41
2021/07/13 13:00:03;;;;;;;6.05;5.55;;;;;;;;;;3580657;40;20239;-41
2021/07/13 13:02:30;;;;;;;7.97;5.72;;;;;;;;;;3582437;40;20273;-45
2021/07/13 13:04:57;;;;;;;5.88;5.28;;;;;;;;;;3579305;40;20240;-42
2021/07/13 13:07:25;;;;;;;5.78;5.38;;;;;;;;;;3577157;40;20236;-42
2021/07/13 13:09:53;;;;;;;4.53;4.22;;;;;;;;;;3575548;40;20232;-41
2021/07/13 13:12:21;;;;;;;5.00;4.60;;;;;;;;;;3574889;40;20212;-42
2021/07/13 13:14:50;;;;;;;5.13;4.72;;;;;;;;;;3576755;40;20238;-41
2021/07/13 13:17:18;;;;;;;7.68;6.97;;;;;;;;;;3578018;40;20256;-41
2021/07/13 13:19:46;;;;;;;5.28;4.88;;;;;;;;;;3578427;40;20487;-42
2021/07/13 13:22:13;;;;;;;5.25;4.57;;;;;;;;;;3582526;40;20235;-40
2021/07/13 13:24:41;;;;;;;4.53;4.13;;;;;;;;;;3572752;40;20239;-40
2021/07/13 13:27:09;;;;;;;4.50;4.10;;;;;;;;;;3576849;40;20239;-41
2021/07/13 13:29:36;;;;;;;6.10;3.72;;;;;;;;;;3582243;40;20621;-42
2021/07/13 13:32:06;;;;;;;3.72;3.53;;;;;;;;;;3582504;40;20243;-40
2021/07/13 13:34:36;;;;;;;4.68;4.18;;;;;;;;;;3581762;40;20294;-41
2021/07/13 13:37:09;;;;;;;4.72;4.32;;;;;;;;;;3582435;40;20265;-41
2021/07/13 13:39:38;;;;;;;4.28;3.88;;;;;;;;;;3582424;40;20254;-40
2021/07/13 13:42:06;;;;;;;4.22;3.92;;;;;;;;;;3582375;40;20254;-40
2021/07/13 13:44:35;;;;;;;4.93;4.45;;;;;;;;;;3582169;40;20234;-43
2021/07/13 13:47:02;;;;;;;4.88;4.57;;;;;;;;;;3576834;40;20247;-40
2021/07/13 13:49:31;;;;;;;5.03;4.65;;;;;;;;;;3578383;40;20240;-40
2021/07/13 13:51:58;;;;;;;4.45;4.03;;;;;;;;;;3572190;40;20244;-40
2021/07/13 13:54:26;;;;;;;5.30;4.65;;;;;;;;;;3573345;40;20243;-42
2021/07/13 13:56:53;;;;;;;4.53;4.13;;;;;;;;;;3568279;40;20240;-41
2021/07/13 13:59:20;;;;;;;6.22;4.13;;;;;;;;;;3572323;40;20236;-41
2021/07/13 14:01:48;;;;;;;4.90;4.53;;;;;;;;;;3616736;22;20324;-38
2021/07/13 14:04:15;;;;;;;4.45;4.15;;;;;;;;;;3598373;40;20522;-39
2021/07/13 14:06:44;;;;;;;5.05;4.35;;;;;;;;;;3599320;40;20253;-40
2021/07/13 14:09:11;;;;;;;4.63;4.22;;;;;;;;;;3598008;40;20334;-38
2021/07/13 14:11:38;;;;;;;5.55;4.40;;;;;;;;;;3598664;39;20249;-38
2021/07/13 14:14:06;;;;;;;4.10;3.83;;;;;;;;;;3598682;40;20269;-40
2021/07/13 14:16:33;;;;;;;4.40;3.95;;;;;;;;;;3598603;40;20244;-40
2021/07/13 14:19:01;;;;;;;4.30;4.00;;;;;;;;;;3589832;40;20589;-39
2021/07/13 14:21:28;;;;;;;4.63;4.22;;;;;;;;;;3590563;40;20229;-39
2021/07/13 14:23:57;;;;;;;4.68;4.32;;;;;;;;;;3593455;40;20566;-39
2021/07/13 14:26:24;;;;;;;4.53;4.20;;;;;;;;;;3588204;40;20229;-39
2021/07/13 14:28:51;;;;;;;4.90;4.50;;;;;;;;;;3587802;40;20247;-38
2021/07/13 14:31:19;;;;;;;4.18;3.88;;;;;;;;;;3593537;39;20257;-38
2021/07/13 14:33:47;;;;;;;4.03;3.72;;;;;;;;;;3598657;40;20241;-38
2021/07/13 14:36:15;;;;;;;4.85;4.40;;;;;;;;;;3589380;40;20260;-39
2021/07/13 14:38:42;;;;;;;4.30;4.00;;;;;;;;;;3588608;40;20273;-40
2021/07/13 14:41:11;;;;;;;4.57;4.03;;;;;;;;;;3586512;40;20572;-38
2021/07/13 14:43:38;;;;;;;4.35;3.83;;;;;;;;;;3591693;40;20559;-39